createdAt,value
2022-09-05T00:00:44.646Z,6.50
2022-09-05T00:03:53.203Z,7.00
2022-09-05T00:06:52.675Z,6.50
2022-09-05T00:09:38.373Z,6.50
2022-09-05T00:12:27.798Z,6.70
2022-09-05T00:15:39.454Z,6.40
2022-09-05T00:24:23.270Z,6.30
2022-09-05T00:24:32.019Z,7.20
2022-09-05T00:26:02.688Z,6.00
2022-09-05T00:29:06.571Z,6.60
2022-09-05T00:32:19.389Z,6.80
2022-09-05T00:35:14.211Z,6.70
2022-09-05T00:38:18.375Z,7.30
2022-09-05T00:41:13.847Z,7.20
2022-09-05T00:44:03.208Z,8.50
2022-09-05T00:47:40.113Z,8.20
2022-09-05T00:50:56.137Z,7.90
2022-09-05T00:54:01.176Z,8.40
2022-09-05T00:57:31.845Z,7.90
2022-09-05T01:00:23.799Z,7.90
2022-09-05T01:03:34.556Z,7.60
2022-09-05T01:07:04.230Z,7.80
2022-09-05T01:10:23.789Z,8.00
2022-09-05T01:13:43.187Z,7.40
2022-09-05T01:16:56.275Z,7.50
2022-09-05T01:19:44.706Z,7.10
2022-09-05T01:22:48.569Z,7.70
2022-09-05T01:25:48.974Z,7.50
2022-09-05T01:29:15.940Z,6.60
2022-09-05T01:32:22.426Z,6.40
2022-09-05T01:35:26.338Z,6.60
2022-09-05T01:38:27.334Z,7.00
2022-09-05T01:41:40.200Z,6.60
2022-09-05T01:45:04.328Z,6.60
2022-09-05T01:48:05.857Z,6.60
2022-09-05T01:51:29.001Z,6.90
2022-09-05T01:54:35.184Z,6.60
2022-09-05T01:57:58.324Z,7.40
2022-09-05T02:01:30.161Z,6.90
2022-09-05T02:04:22.943Z,7.60
2022-09-05T02:07:37.834Z,6.40
2022-09-05T02:11:03.835Z,6.60
2022-09-05T02:14:09.414Z,6.40
2022-09-05T02:17:08.445Z,6.40
2022-09-05T02:20:23.600Z,6.90
2022-09-05T02:23:32.589Z,6.30
2022-09-05T02:26:53.345Z,6.70
2022-09-05T02:29:57.886Z,6.90
2022-09-05T02:36:17.210Z,6.80
2022-09-05T02:45:07.281Z,6.70
2022-09-05T02:45:18.300Z,7.10
2022-09-05T02:46:21.522Z,6.80
2022-09-05T02:52:16.796Z,7.10
2022-09-05T02:57:24.143Z,6.80
2022-09-05T02:57:35.334Z,6.40
2022-09-05T02:59:10.930Z,7.30
2022-09-05T03:02:30.846Z,6.20
2022-09-05T03:05:25.344Z,6.50
2022-09-05T03:08:24.307Z,6.70
2022-09-05T03:12:28.921Z,6.40
2022-09-05T03:15:46.617Z,7.20
2022-09-05T03:18:44.245Z,6.30
2022-09-05T03:22:00.445Z,7.10
2022-09-05T03:25:25.316Z,6.50
2022-09-05T03:28:47.502Z,6.80
2022-09-05T03:32:10.402Z,7.40
2022-09-05T03:35:15.313Z,7.10
2022-09-05T03:38:39.761Z,7.00
2022-09-05T03:41:56.714Z,7.80
2022-09-05T03:44:50.976Z,9.10
2022-09-05T03:55:18.605Z,8.50
2022-09-05T03:57:14.133Z,8.70
2022-09-05T03:57:42.600Z,7.60
2022-09-05T04:00:36.980Z,7.80
2022-09-05T04:08:07.893Z,7.30
2022-09-05T04:08:29.180Z,7.90
2022-09-05T04:10:10.965Z,7.70
2022-09-05T04:13:19.202Z,8.70
2022-09-05T04:16:15.527Z,8.60
2022-09-05T04:19:14.788Z,9.30
2022-09-05T04:22:10.471Z,7.90
2022-09-05T04:25:10.052Z,9.00
2022-09-05T04:28:15.264Z,9.20
2022-09-05T04:31:30.353Z,9.40
2022-09-05T04:34:43.042Z,8.10
2022-09-05T04:37:48.213Z,8.10
2022-09-05T04:41:02.065Z,8.00
2022-09-05T04:44:03.616Z,8.40
2022-09-05T04:47:05.468Z,9.10
2022-09-05T04:50:02.427Z,8.00
2022-09-05T04:53:33.549Z,8.60
2022-09-05T04:56:27.470Z,8.70
2022-09-05T05:03:31.287Z,9.60
2022-09-05T05:06:13.501Z,9.20
2022-09-05T05:06:46.941Z,9.50
2022-09-05T05:09:45.737Z,8.50
2022-09-05T05:17:55.976Z,8.80
2022-09-05T05:18:16.108Z,8.30
2022-09-05T05:20:41.159Z,9.10
2022-09-05T05:23:08.758Z,8.80
2022-09-05T05:26:01.837Z,8.80
2022-09-05T05:29:02.397Z,8.10
2022-09-05T05:32:00.056Z,8.10
2022-09-05T05:34:56.565Z,8.50
2022-09-05T05:38:20.823Z,8.60
2022-09-05T05:41:22.530Z,8.10
2022-09-05T05:44:17.140Z,8.30
2022-09-05T05:47:26.780Z,11.30
2022-09-05T05:50:31.247Z,13.40
2022-09-05T05:53:32.007Z,16.00
2022-09-05T05:56:34.398Z,15.50
2022-09-05T05:59:35.271Z,18.20
2022-09-05T06:02:44.229Z,17.30
2022-09-05T06:05:44.872Z,18.60
2022-09-05T06:11:09.428Z,18.80
2022-09-05T06:14:59.311Z,16.80
2022-09-05T06:15:57.396Z,17.40
2022-09-05T06:20:08.272Z,18.90
2022-09-05T06:23:38.653Z,11.90
2022-09-05T06:26:53.914Z,11.10
2022-09-05T06:30:18.449Z,9.90
2022-09-05T06:33:09.753Z,9.10
2022-09-05T06:36:08.965Z,9.70
2022-09-05T06:39:23.292Z,8.70
2022-09-05T06:42:33.436Z,10.00
2022-09-05T06:45:28.643Z,9.20
2022-09-05T06:48:47.056Z,8.90
2022-09-05T06:51:47.752Z,9.10
2022-09-05T06:55:06.653Z,9.20
2022-09-05T06:58:22.831Z,9.50
2022-09-05T07:01:11.582Z,8.80
2022-09-05T07:04:31.931Z,7.90
2022-09-05T07:07:36.715Z,8.60
2022-09-05T07:10:50.699Z,8.90
2022-09-05T07:13:56.857Z,8.30
2022-09-05T07:16:56.308Z,8.40
2022-09-05T07:20:05.671Z,7.70
2022-09-05T07:23:51.374Z,8.30
2022-09-05T07:26:49.622Z,7.80
2022-09-05T07:29:35.223Z,7.70
2022-09-05T07:32:24.433Z,6.90
2022-09-05T07:35:31.161Z,6.60
2022-09-05T07:38:50.222Z,6.70
2022-09-05T07:41:54.043Z,5.20
2022-09-05T07:44:54.223Z,6.10
2022-09-05T07:47:55.910Z,4.90
2022-09-05T07:56:34.715Z,5.10
2022-09-05T07:57:06.509Z,5.50
2022-09-05T07:57:51.395Z,5.40
2022-09-05T08:00:53.824Z,5.20
2022-09-05T08:03:44.134Z,5.10
2022-09-05T08:07:46.547Z,5.30
2022-09-05T08:10:08.518Z,4.90
2022-09-05T08:13:24.192Z,5.80
2022-09-05T08:16:16.293Z,6.00
2022-09-05T08:19:39.738Z,6.10
2022-09-05T08:25:27.511Z,5.50
2022-09-05T08:28:33.765Z,4.80
2022-09-05T08:31:52.785Z,5.10
2022-09-05T08:34:52.548Z,5.20
2022-09-05T08:37:43.089Z,4.30
2022-09-05T08:40:39.358Z,5.20
2022-09-05T08:46:36.945Z,4.20
2022-09-05T08:47:26.171Z,4.00
2022-09-05T08:50:56.882Z,5.10
2022-09-05T08:54:27.521Z,4.00
2022-09-05T08:57:25.461Z,4.40
2022-09-05T09:00:24.183Z,4.00
2022-09-05T09:03:22.380Z,3.60
2022-09-05T09:06:16.124Z,4.20
2022-09-05T09:09:18.580Z,4.40
2022-09-05T09:12:52.226Z,4.80
2022-09-05T09:16:11.314Z,4.30
2022-09-05T09:19:10.977Z,3.70
2022-09-05T09:22:23.689Z,4.40
2022-09-05T09:25:31.840Z,4.00
2022-09-05T09:28:49.894Z,4.10
2022-09-05T09:32:07.496Z,4.80
2022-09-05T09:35:20.902Z,4.40
2022-09-05T09:38:14.937Z,4.40
2022-09-05T09:41:19.168Z,4.50
2022-09-05T09:44:42.552Z,4.40
2022-09-05T09:47:56.697Z,4.40
2022-09-05T09:50:58.319Z,4.70
2022-09-05T09:54:21.025Z,4.60
2022-09-05T09:57:44.368Z,4.20
2022-09-05T10:00:51.327Z,5.00
2022-09-05T10:09:57.954Z,5.10
2022-09-05T10:11:09.666Z,5.30
2022-09-05T10:14:49.672Z,5.10
2022-09-05T10:17:46.675Z,5.40
2022-09-05T10:21:15.719Z,5.30
2022-09-05T10:24:19.687Z,5.30
2022-09-05T10:27:19.809Z,5.60
2022-09-05T10:31:52.781Z,5.60
2022-09-05T10:35:13.000Z,4.70
2022-09-05T10:37:12.237Z,4.60
2022-09-05T10:40:06.503Z,4.70
2022-09-05T10:43:11.047Z,5.10
2022-09-05T10:45:58.484Z,5.30
2022-09-05T10:48:58.999Z,5.70
2022-09-05T10:52:41.394Z,5.40
2022-09-05T10:55:55.633Z,5.80
2022-09-05T11:01:46.948Z,5.20
2022-09-05T11:02:34.653Z,5.00
2022-09-05T11:05:29.683Z,4.50
2022-09-05T11:08:28.698Z,4.70
2022-09-05T11:11:34.687Z,5.40
2022-09-05T11:14:52.463Z,5.40
2022-09-05T11:17:44.889Z,5.00
2022-09-05T11:21:04.809Z,5.40
2022-09-05T11:24:12.402Z,5.20
2022-09-05T11:27:25.208Z,4.70
2022-09-05T11:30:28.392Z,4.80
2022-09-05T11:39:59.857Z,5.30
2022-09-05T11:40:04.817Z,5.20
2022-09-05T11:40:35.358Z,4.50
2022-09-05T11:44:26.230Z,5.00
2022-09-05T11:47:48.603Z,4.50
2022-09-05T11:50:57.857Z,4.20
2022-09-05T11:54:15.632Z,4.70
2022-09-05T11:57:33.218Z,4.90
2022-09-05T12:00:34.486Z,4.30
2022-09-05T12:04:01.586Z,4.00
2022-09-05T12:07:31.771Z,4.70
2022-09-05T12:10:47.031Z,4.40
2022-09-05T12:14:20.958Z,4.90
2022-09-05T12:17:35.206Z,4.20
2022-09-05T12:20:37.472Z,4.20
2022-09-05T12:24:53.355Z,4.40
2022-09-05T12:27:42.930Z,4.70
2022-09-05T12:30:42.436Z,4.10
2022-09-05T12:40:54.274Z,4.00
2022-09-05T12:41:38.506Z,4.30
2022-09-05T12:42:10.210Z,4.20
2022-09-05T12:44:16.905Z,3.60
2022-09-05T12:46:45.856Z,3.80
2022-09-05T12:49:51.903Z,4.80
2022-09-05T12:53:06.931Z,3.70
2022-09-05T12:56:32.253Z,3.90
2022-09-05T13:02:58.640Z,4.00
2022-09-05T13:03:14.117Z,3.20
2022-09-05T13:06:21.468Z,3.60
2022-09-05T13:09:30.875Z,3.80
2022-09-05T13:14:57.341Z,3.70
2022-09-05T13:16:03.535Z,3.70
2022-09-05T13:19:07.104Z,3.60
2022-09-05T13:21:57.731Z,3.60
2022-09-05T13:24:50.988Z,3.60
2022-09-05T13:27:46.651Z,3.60
2022-09-05T13:34:34.003Z,3.00
2022-09-05T13:38:00.004Z,3.60
2022-09-05T13:38:13.927Z,5.10
2022-09-05T13:40:27.482Z,4.80
2022-09-05T13:43:26.658Z,3.80
2022-09-05T13:46:26.554Z,3.60
2022-09-05T13:49:39.764Z,4.00
2022-09-05T13:52:38.776Z,4.10
2022-09-05T13:55:38.101Z,4.00
2022-09-05T13:58:56.842Z,3.20
2022-09-05T14:02:25.943Z,3.80
2022-09-05T14:05:41.532Z,3.80
2022-09-05T14:08:44.115Z,3.20
2022-09-05T14:11:57.937Z,3.30
2022-09-05T14:15:12.626Z,3.60
2022-09-05T14:18:20.226Z,3.10
2022-09-05T14:21:19.821Z,3.60
2022-09-05T14:24:28.319Z,3.20
2022-09-05T14:27:25.898Z,3.30
2022-09-05T14:37:40.626Z,3.30
2022-09-05T14:37:50.985Z,3.30
2022-09-05T14:41:04.901Z,3.10
2022-09-05T14:44:01.660Z,3.10
2022-09-05T14:46:49.871Z,3.40
2022-09-05T14:49:42.468Z,3.20
2022-09-05T14:52:20.320Z,3.40
2022-09-05T15:02:44.407Z,3.40
2022-09-05T15:02:54.993Z,3.20
2022-09-05T15:06:41.148Z,3.20
2022-09-05T15:12:14.176Z,3.70
2022-09-05T15:12:31.376Z,3.20
2022-09-05T15:15:26.267Z,3.20
2022-09-05T15:18:13.737Z,3.40
2022-09-05T15:20:46.343Z,3.30
2022-09-05T15:23:24.566Z,3.30
2022-09-05T15:26:04.859Z,2.90
2022-09-05T15:28:43.741Z,2.80
2022-09-05T15:31:25.226Z,3.10
2022-09-05T15:33:56.856Z,3.30
2022-09-05T15:36:40.625Z,3.60
2022-09-05T15:39:29.400Z,3.30
2022-09-05T15:42:24.173Z,3.30
2022-09-05T15:45:10.105Z,3.90
2022-09-05T15:48:02.454Z,3.60
2022-09-05T15:50:43.388Z,3.30
2022-09-05T15:53:25.352Z,3.50
2022-09-05T15:56:01.185Z,3.90
2022-09-05T15:58:52.316Z,3.50
2022-09-05T16:01:58.631Z,3.80
2022-09-05T16:10:27.569Z,4.00
2022-09-05T16:10:39.106Z,3.10
2022-09-05T16:10:39.699Z,3.40
2022-09-05T16:13:43.623Z,3.30
2022-09-05T16:21:47.356Z,3.60
2022-09-05T16:23:26.465Z,3.50
2022-09-05T16:23:33.822Z,3.90
2022-09-05T16:25:28.379Z,3.80
2022-09-05T16:28:16.218Z,3.90
2022-09-05T16:30:44.002Z,3.70
2022-09-05T16:33:16.701Z,3.90
2022-09-05T16:35:49.903Z,4.10
2022-09-05T16:38:48.616Z,4.00
2022-09-05T16:41:42.419Z,4.30
2022-09-05T16:44:36.294Z,5.00
2022-09-05T16:47:44.950Z,4.00
2022-09-05T16:50:34.625Z,4.80
2022-09-05T16:53:32.288Z,4.50
2022-09-05T16:56:30.447Z,4.90
2022-09-05T16:59:10.630Z,4.60
2022-09-05T17:01:50.893Z,3.80
2022-09-05T17:04:38.826Z,3.90
2022-09-05T17:07:32.897Z,3.90
2022-09-05T17:10:20.021Z,4.50
2022-09-05T17:12:54.965Z,4.40
2022-09-05T17:15:37.587Z,4.80
2022-09-05T17:18:19.706Z,5.80
2022-09-05T17:20:59.109Z,5.20
2022-09-05T17:29:15.585Z,5.10
2022-09-05T17:29:36.091Z,5.40
2022-09-05T17:32:52.216Z,5.10
2022-09-05T17:35:31.554Z,5.40
2022-09-05T17:38:34.561Z,5.30
2022-09-05T17:41:54.602Z,5.30
2022-09-05T17:44:44.200Z,5.20
2022-09-05T17:47:50.163Z,5.00
2022-09-05T17:50:53.139Z,6.00
2022-09-05T17:53:33.713Z,5.50
2022-09-05T17:56:04.695Z,5.80
2022-09-05T17:58:49.307Z,5.00
2022-09-05T18:01:26.696Z,5.20
2022-09-05T18:04:18.053Z,4.70
2022-09-05T18:06:59.390Z,5.00
2022-09-05T18:09:49.639Z,5.60
2022-09-05T18:15:27.204Z,6.80
2022-09-05T18:17:55.150Z,8.10
2022-09-05T18:21:12.342Z,7.00
2022-09-05T18:23:58.930Z,9.70
2022-09-05T18:26:37.495Z,9.70
2022-09-05T18:29:16.182Z,8.80
2022-09-05T18:31:45.309Z,7.70
2022-09-05T18:34:19.716Z,6.70
2022-09-05T18:37:29.293Z,7.50
2022-09-05T18:40:36.399Z,7.50
2022-09-05T18:43:20.902Z,7.40
2022-09-05T18:46:08.065Z,7.70
2022-09-05T18:50:08.161Z,7.60
2022-09-05T18:52:02.059Z,7.60
2022-09-05T18:54:36.982Z,7.30
2022-09-05T18:57:28.482Z,7.20
2022-09-05T19:00:07.995Z,7.30
2022-09-05T19:02:59.370Z,7.70
2022-09-05T19:05:51.701Z,9.50
2022-09-05T19:08:31.951Z,9.20
2022-09-05T19:11:27.803Z,10.60
2022-09-05T19:14:26.186Z,10.10
2022-09-05T19:16:52.769Z,9.80
2022-09-05T19:19:27.336Z,9.90
2022-09-05T19:22:39.574Z,7.50
2022-09-05T19:24:50.232Z,8.30
2022-09-05T19:28:05.976Z,7.20
2022-09-05T19:36:58.902Z,5.90
2022-09-05T19:37:03.786Z,5.60
2022-09-05T19:37:06.263Z,5.50
2022-09-05T19:44:01.945Z,5.40
2022-09-05T19:47:30.684Z,4.70
2022-09-05T19:47:34.474Z,5.10
2022-09-05T19:50:58.642Z,4.80
2022-09-05T19:53:26.735Z,5.50
2022-09-05T19:55:59.784Z,5.50
2022-09-05T19:58:30.822Z,5.20
2022-09-05T20:01:08.425Z,5.40
2022-09-05T20:03:45.643Z,5.50
2022-09-05T20:06:31.996Z,6.50
2022-09-05T20:09:20.125Z,6.40
2022-09-05T20:11:58.896Z,5.90
2022-09-05T20:14:31.049Z,5.40
2022-09-05T20:17:31.575Z,6.00
2022-09-05T20:20:15.557Z,6.10
2022-09-05T20:22:51.500Z,6.30
2022-09-05T20:25:35.302Z,5.60
2022-09-05T20:28:22.429Z,5.50
2022-09-05T20:33:48.146Z,4.60
2022-09-05T20:43:08.337Z,5.50
2022-09-05T20:43:15.472Z,5.70
2022-09-05T20:43:32.443Z,5.50
2022-09-05T20:45:48.442Z,6.20
2022-09-05T20:54:07.459Z,7.30
2022-09-05T20:54:23.019Z,7.30
2022-09-05T20:54:34.757Z,7.10
2022-09-05T20:57:28.944Z,7.50
2022-09-05T21:00:06.475Z,8.00
2022-09-05T21:02:34.734Z,7.80
2022-09-05T21:05:20.970Z,7.40
2022-09-05T21:08:06.890Z,7.40
2022-09-05T21:10:57.450Z,8.10
2022-09-05T21:13:32.822Z,7.90
2022-09-05T21:16:19.898Z,7.60
2022-09-05T21:18:51.952Z,7.80
2022-09-05T21:21:30.229Z,8.00
2022-09-05T21:24:17.534Z,7.30
2022-09-05T21:26:52.531Z,7.00
2022-09-05T21:29:32.781Z,6.40
2022-09-05T21:32:10.479Z,6.50
2022-09-05T21:34:55.204Z,6.00
2022-09-05T21:37:26.485Z,5.70
2022-09-05T21:40:00.954Z,5.90
2022-09-05T21:47:33.263Z,5.50
2022-09-05T21:48:16.907Z,6.40
2022-09-05T21:51:02.731Z,4.90
2022-09-05T21:57:53.658Z,4.10
2022-09-05T21:59:21.637Z,4.00
2022-09-05T21:59:46.536Z,4.20
2022-09-05T22:02:18.256Z,4.20
2022-09-05T22:04:48.470Z,5.00
2022-09-05T22:07:31.811Z,4.30
2022-09-05T22:10:08.620Z,3.80
2022-09-05T22:12:41.569Z,4.00
2022-09-05T22:15:27.392Z,4.10
2022-09-05T22:18:27.064Z,4.40
2022-09-05T22:21:32.545Z,4.10
2022-09-05T22:23:54.168Z,4.00
2022-09-05T22:26:22.235Z,3.60
2022-09-05T22:28:52.553Z,4.30
2022-09-05T22:31:23.723Z,4.40
2022-09-05T22:33:54.815Z,3.70
2022-09-05T22:36:24.991Z,3.70
2022-09-05T22:38:55.258Z,4.30
2022-09-05T22:41:30.431Z,3.80
2022-09-05T22:44:04.933Z,4.20
2022-09-05T22:46:33.059Z,4.30
2022-09-05T22:49:00.909Z,4.50
2022-09-05T22:51:28.754Z,4.40
2022-09-05T22:53:56.787Z,5.60
2022-09-05T22:56:34.777Z,4.50
2022-09-05T22:59:06.871Z,4.80
2022-09-05T23:01:37.955Z,4.70
2022-09-05T23:04:09.088Z,4.90
2022-09-05T23:06:38.283Z,4.80
2022-09-05T23:09:06.176Z,4.90
2022-09-05T23:11:36.044Z,4.80
2022-09-05T23:14:06.894Z,4.90
2022-09-05T23:16:37.790Z,4.60
2022-09-05T23:19:08.427Z,4.90
2022-09-05T23:21:36.374Z,5.00
2022-09-05T23:24:04.726Z,4.50
2022-09-05T23:26:35.402Z,4.60
2022-09-05T23:29:03.477Z,4.50
2022-09-05T23:31:33.741Z,4.70
2022-09-05T23:34:04.701Z,4.00
2022-09-05T23:36:34.745Z,4.20
2022-09-05T23:39:05.585Z,4.10
2022-09-05T23:41:35.154Z,4.60
2022-09-05T23:44:02.975Z,4.30
2022-09-05T23:46:35.155Z,4.20
2022-09-05T23:49:06.134Z,4.10
2022-09-05T23:51:36.996Z,4.30
2022-09-05T23:54:04.717Z,3.90
2022-09-05T23:56:32.412Z,3.90
2022-09-05T23:59:00.360Z,3.60
